Terminal Aerodrome Forecast
Issued by NWS Boston, MA

Current Version | Previous Version | Text Only | Print | Product List | Glossary On
Versions: 1 2 3 4 5 6 7 8 9 10 11 12 13 14 15 16 17 18 19 20 21 22 23 24
000
FTUS41 KBOX 251429 AAA
TAFBOS
TAF AMD
KBOS 251429Z 2514/2618 06014KT 5SM -RA BR OVC025
     FM251600 07015KT 3SM -RA OVC015
     FM252100 05013KT 2SM -DZ BR OVC008
     FM260200 04007KT 2SM -RA BR OVC004
     FM260600 01005KT 2SM RA BR OVC004
     FM261200 34010KT 2SM -RA BR OVC004
     FM261600 32010KT 3SM BR VCSH OVC008=

USA.gov is the U.S. government's official web portal to all federal, state and local government web resources and services.